Time;durP1;ratioP1;P1;durP2;ratioP2;P2;SDS_P1;SDS_P2;PMS_P1;PMS_P2;Temp;Humidity;BMP_temperature;BMP_pressure;BME280_temperature;BME280_humidity;BME280_pressure;Samples;Min_cycle;Max_cycle;Signal;HPM_P1;HPM_P2
2023/06/12 00:01:28;;;;;;;3.90;3.67;;;;;;;19.80;46.94;101249.47;5053969;28;20217;-78
2023/06/12 00:04:02;;;;;;;3.90;3.60;;;;;;;19.64;46.92;101281.03;5054428;28;20206;-78
2023/06/12 00:06:29;;;;;;;3.93;3.53;;;;;;;19.49;48.23;101276.44;5036784;28;20552;-78
2023/06/12 00:08:57;;;;;;;4.20;3.90;;;;;;;19.36;48.96;101245.16;5054170;28;20293;-78
2023/06/12 00:11:23;;;;;;;4.43;4.07;;;;;;;19.23;50.31;101204.28;5054308;28;20280;-78
2023/06/12 00:13:50;;;;;;;3.83;3.57;;;;;;;19.16;50.81;101157.81;5054186;28;20209;-78
2023/06/12 00:16:16;;;;;;;4.37;4.07;;;;;;;19.11;50.94;101128.03;5054756;28;20232;-78
2023/06/12 00:18:43;;;;;;;4.20;3.90;;;;;;;19.07;51.27;101092.91;5054134;28;20208;-78
2023/06/12 00:21:12;;;;;;;4.50;4.10;;;;;;;18.91;51.26;101095.38;5054561;28;20233;-78
2023/06/12 00:23:40;;;;;;;4.03;3.73;;;;;;;18.89;51.53;101078.72;5054407;28;20205;-78
2023/06/12 00:26:06;;;;;;;4.00;3.70;;;;;;;18.84;51.83;101081.53;5056357;28;20209;-78
2023/06/12 00:28:33;;;;;;;3.83;3.57;;;;;;;18.87;51.67;101083.22;5058685;28;20279;-78
2023/06/12 00:31:00;;;;;;;4.60;4.20;;;;;;;18.80;50.90;101084.38;5058221;28;20256;-78
2023/06/12 00:33:27;;;;;;;6.17;3.83;;;;;;;18.83;50.98;101102.78;5057863;28;20618;-78
2023/06/12 00:35:53;;;;;;;3.87;3.57;;;;;;;18.84;50.71;101107.13;5058393;28;20588;-78
2023/06/12 00:38:22;;;;;;;4.23;3.93;;;;;;;18.90;51.19;101114.81;5058242;28;20201;-78
2023/06/12 00:40:48;;;;;;;3.77;3.40;;;;;;;18.84;51.13;101118.56;5058465;28;20602;-78
2023/06/12 00:43:15;;;;;;;3.80;3.50;;;;;;;18.83;52.11;101118.66;5062684;28;20206;-77
2023/06/12 00:45:41;;;;;;;3.63;3.40;;;;;;;18.84;50.87;101102.69;5065840;28;20205;-77
2023/06/12 00:48:08;;;;;;;4.07;3.70;;;;;;;18.88;49.81;101118.44;5066345;28;20263;-77
2023/06/12 00:50:36;;;;;;;4.03;3.70;;;;;;;18.91;49.64;101150.94;5066554;28;20225;-77
2023/06/12 00:53:03;;;;;;;5.63;3.77;;;;;;;18.81;48.20;101184.84;5064831;28;20225;-78
2023/06/12 00:55:32;;;;;;;4.30;3.90;;;;;;;18.50;49.68;101203.69;5057296;28;20278;-78
2023/06/12 00:57:59;;;;;;;3.73;3.27;;;;;;;18.55;51.35;101180.59;5057456;28;20209;-78
2023/06/12 01:00:25;;;;;;;4.37;4.03;;;;;;;18.50;51.79;101150.81;5058078;28;20297;-78
2023/06/12 01:02:55;;;;;;;4.13;3.77;;;;;;;18.44;51.04;101132.56;5057985;28;20211;-78
2023/06/12 01:05:28;;;;;;;4.10;3.80;;;;;;;18.29;51.29;101138.47;5057728;28;20228;-78
2023/06/12 01:07:58;;;;;;;4.03;3.73;;;;;;;18.24;52.26;101126.28;5057915;28;20605;-78
2023/06/12 01:10:30;;;;;;;3.73;3.23;;;;;;;18.26;52.13;101107.75;5057001;28;20229;-78
2023/06/12 01:13:00;;;;;;;3.63;3.43;;;;;;;18.23;53.47;101082.28;5057102;28;20590;-78
2023/06/12 01:15:26;;;;;;;3.73;3.43;;;;;;;18.33;52.31;101066.06;5057232;28;20625;-78
2023/06/12 01:17:53;;;;;;;4.00;3.70;;;;;;;18.35;51.90;101070.34;5057415;28;20251;-77
2023/06/12 01:20:20;;;;;;;3.87;3.57;;;;;;;18.27;52.63;101088.31;5057251;28;20221;-78
2023/06/12 01:22:54;;;;;;;3.87;3.60;;;;;;;18.30;52.77;101079.41;5057029;28;20251;-78
2023/06/12 01:25:52;;;;;;;4.00;3.63;;;;;;;18.22;53.38;101085.84;5057356;28;20263;-78
2023/06/12 01:28:39;;;;;;;3.90;3.60;;;;;;;18.10;53.37;101082.88;5056891;28;20201;-78
2023/06/12 01:31:14;;;;;;;4.10;3.77;;;;;;;18.11;53.66;101071.34;5055549;28;20255;-77
2023/06/12 01:33:50;;;;;;;4.43;4.13;;;;;;;17.94;53.77;101064.09;5056249;28;20228;-79
2023/06/12 01:36:23;;;;;;;4.20;3.90;;;;;;;17.82;53.54;101061.00;5058508;28;20205;-79
2023/06/12 01:38:54;;;;;;;4.10;3.80;;;;;;;17.76;53.68;101058.59;5058049;28;20213;-79
2023/06/12 01:41:27;;;;;;;3.97;3.67;;;;;;;17.76;54.45;101053.31;5057571;28;20794;-76
2023/06/12 01:43:53;;;;;;;4.90;4.50;;;;;;;17.81;53.61;101047.84;5053622;28;20206;-76
2023/06/12 01:46:19;;;;;;;3.97;3.67;;;;;;;17.79;53.19;101058.47;5053768;28;20213;-76
2023/06/12 01:48:47;;;;;;;4.23;3.70;;;;;;;17.84;53.87;101063.63;5053484;28;20209;-76
2023/06/12 01:51:13;;;;;;;4.33;3.83;;;;;;;17.78;55.44;101063.81;5053560;28;20226;-77
2023/06/12 01:53:40;;;;;;;5.03;4.00;;;;;;;17.82;54.55;101044.31;5053469;28;20225;-76
2023/06/12 01:56:07;;;;;;;4.37;3.97;;;;;;;17.54;53.50;101049.78;5053361;28;20235;-77
2023/06/12 01:58:34;;;;;;;4.27;3.97;;;;;;;17.19;54.39;101066.00;5053220;28;20205;-77
2023/06/12 02:01:00;;;;;;;4.73;4.27;;;;;;;17.23;55.70;101057.06;5053436;28;20275;-76
2023/06/12 02:03:27;;;;;;;5.30;4.20;;;;;;;17.18;56.48;101014.16;5053263;28;20205;-77
2023/06/12 02:05:55;;;;;;;4.70;4.30;;;;;;;17.27;56.24;101003.25;5053734;28;20201;-79
2023/06/12 02:08:21;;;;;;;4.50;4.20;;;;;;;17.32;56.80;100989.88;5058033;28;20628;-79
2023/06/12 02:10:47;;;;;;;4.00;3.70;;;;;;;17.41;56.79;100978.13;5057144;28;20785;-79
2023/06/12 02:13:13;;;;;;;4.07;3.77;;;;;;;17.34;56.53;100968.72;5057547;28;20233;-79
2023/06/12 02:15:40;;;;;;;4.13;3.80;;;;;;;17.39;56.33;100977.31;5055859;28;20205;-76
2023/06/12 02:18:07;;;;;;;4.33;4.03;;;;;;;17.39;56.32;100972.06;5053092;28;20256;-77
2023/06/12 02:20:33;;;;;;;4.53;4.13;;;;;;;17.29;56.37;100984.75;5052905;28;20275;-76
2023/06/12 02:23:01;;;;;;;4.23;3.93;;;;;;;17.21;56.83;100979.75;5052842;28;20233;-77
2023/06/12 02:25:27;;;;;;;4.40;4.10;;;;;;;17.10;57.95;100973.16;5052622;28;20282;-76
2023/06/12 02:27:54;;;;;;;4.63;4.23;;;;;;;17.16;57.06;100960.59;5052630;28;20750;-76
2023/06/12 02:30:20;;;;;;;4.17;3.87;;;;;;;17.22;57.08;100964.78;5052683;28;20241;-76
2023/06/12 02:32:49;;;;;;;3.97;3.67;;;;;;;17.18;58.20;100964.03;5052632;28;20218;-76
2023/06/12 02:35:15;;;;;;;4.97;4.47;;;;;;;17.05;58.45;100949.59;5052551;28;20205;-76
2023/06/12 02:37:42;;;;;;;4.37;4.00;;;;;;;16.99;58.07;100937.50;5052486;28;20255;-76
2023/06/12 02:40:11;;;;;;;4.20;3.90;;;;;;;17.01;58.09;100940.94;5053879;28;20229;-77
2023/06/12 02:42:37;;;;;;;5.77;4.30;;;;;;;17.00;58.48;100936.56;5053782;28;20291;-76
2023/06/12 02:45:04;;;;;;;4.07;3.77;;;;;;;16.98;58.63;100942.81;5053842;28;20205;-76
2023/06/12 02:47:31;;;;;;;4.30;4.00;;;;;;;16.99;58.56;100934.84;5053169;28;20211;-76
2023/06/12 02:49:57;;;;;;;4.07;3.77;;;;;;;16.94;58.26;100944.72;5053486;28;20240;-76
2023/06/12 02:52:24;;;;;;;5.60;3.60;;;;;;;16.97;58.68;100941.97;5053286;28;20255;-77
2023/06/12 02:54:50;;;;;;;3.87;3.57;;;;;;;16.88;57.97;100952.84;5053180;28;20213;-77
2023/06/12 02:57:18;;;;;;;4.43;4.03;;;;;;;16.97;58.08;100956.94;5053835;28;20209;-76
2023/06/12 02:59:45;;;;;;;5.30;3.60;;;;;;;16.98;58.57;100958.66;5053541;28;20287;-77
2023/06/12 03:02:11;;;;;;;4.30;3.90;;;;;;;16.99;58.51;100955.97;5053372;28;20319;-76
2023/06/12 03:04:38;;;;;;;4.23;3.83;;;;;;;16.98;58.26;100958.66;5053196;28;20259;-77
2023/06/12 03:07:06;;;;;;;4.10;3.80;;;;;;;16.87;58.87;100959.06;5053000;28;20208;-77
2023/06/12 03:09:34;;;;;;;4.00;3.70;;;;;;;16.95;58.96;100956.13;5053121;28;20303;-77
2023/06/12 03:12:01;;;;;;;4.00;3.70;;;;;;;16.91;58.89;100962.41;5053138;28;20205;-77
2023/06/12 03:14:29;;;;;;;4.47;4.07;;;;;;;16.84;58.37;100965.28;5053317;28;20636;-77
2023/06/12 03:16:55;;;;;;;4.00;3.67;;;;;;;16.50;56.79;100983.19;5053187;28;20721;-77
2023/06/12 03:19:22;;;;;;;4.63;4.20;;;;;;;16.08;57.49;101019.69;5052999;28;20209;-77
2023/06/12 03:21:48;;;;;;;4.20;3.90;;;;;;;16.30;57.32;101021.63;5052987;28;20430;-77
2023/06/12 03:24:15;;;;;;;3.70;3.40;;;;;;;16.48;57.99;101023.63;5053316;28;20283;-77
2023/06/12 03:26:41;;;;;;;4.77;4.07;;;;;;;16.51;59.17;101012.16;5053016;28;20210;-76
2023/06/12 03:29:08;;;;;;;4.47;3.80;;;;;;;16.46;59.38;100991.19;5052350;28;20202;-76
2023/06/12 03:31:36;;;;;;;4.03;3.77;;;;;;;16.59;60.21;100975.84;5052738;28;20749;-76
2023/06/12 03:34:02;;;;;;;4.07;3.70;;;;;;;16.58;60.15;100967.97;5052372;28;20197;-77
2023/06/12 03:36:29;;;;;;;4.67;4.13;;;;;;;16.51;60.15;100954.16;5052970;28;20236;-76
2023/06/12 03:38:55;;;;;;;4.47;3.47;;;;;;;16.53;60.53;100949.69;5052724;28;20680;-76
2023/06/12 03:41:23;;;;;;;4.30;4.00;;;;;;;16.48;61.31;100933.19;5052547;28;20952;-77
2023/06/12 03:43:49;;;;;;;4.43;4.10;;;;;;;16.51;60.78;100930.44;5052499;28;20673;-77
2023/06/12 03:46:16;;;;;;;4.10;3.80;;;;;;;16.47;60.79;100927.06;5052613;28;20213;-76
2023/06/12 03:48:44;;;;;;;3.97;3.77;;;;;;;16.56;60.38;100927.63;5052116;28;20884;-77
2023/06/12 03:51:10;;;;;;;4.47;3.67;;;;;;;16.57;60.51;100939.88;5050456;28;20279;-77
2023/06/12 03:53:38;;;;;;;4.43;4.03;;;;;;;16.54;61.17;100940.00;5052239;28;20201;-77
2023/06/12 03:56:04;;;;;;;4.30;3.90;;;;;;;16.52;61.32;100934.78;5052943;28;20205;-77
2023/06/12 03:58:31;;;;;;;4.40;4.00;;;;;;;16.48;61.08;100933.19;5052751;28;20214;-77
2023/06/12 04:00:57;;;;;;;3.70;3.40;;;;;;;16.53;61.21;100930.38;5054760;28;20835;-77
2023/06/12 04:03:24;;;;;;;4.10;3.80;;;;;;;16.47;61.54;100932.31;5057129;28;20221;-77
2023/06/12 04:05:52;;;;;;;5.10;4.03;;;;;;;16.39;61.27;100937.00;5057838;28;20706;-77
2023/06/12 04:08:19;;;;;;;4.37;4.07;;;;;;;16.34;62.31;100940.72;5056428;28;20275;-76
2023/06/12 04:10:45;;;;;;;4.33;3.93;;;;;;;16.32;62.37;100914.41;5056482;28;20319;-77
2023/06/12 04:13:12;;;;;;;4.00;3.70;;;;;;;16.25;63.02;100905.00;5057276;28;20263;-77
2023/06/12 04:15:39;;;;;;;3.97;3.67;;;;;;;16.23;62.81;100902.44;5057311;28;20201;-77
2023/06/12 04:18:07;;;;;;;3.77;3.47;;;;;;;16.27;63.14;100892.63;5056721;28;20209;-77
2023/06/12 04:20:33;;;;;;;4.73;3.47;;;;;;;16.37;64.24;100880.88;5056146;28;20274;-77
2023/06/12 04:23:04;;;;;;;4.37;4.07;;;;;;;16.46;64.84;100864.72;5056973;28;20221;-77
2023/06/12 04:25:36;;;;;;;4.20;3.90;;;;;;;16.57;65.50;100830.06;5058704;28;20245;-77
2023/06/12 04:28:03;;;;;;;4.20;3.80;;;;;;;16.63;63.69;100844.78;5056568;28;20209;-77
2023/06/12 04:30:31;;;;;;;3.60;3.40;;;;;;;16.71;64.39;100866.47;5056852;28;20264;-77
2023/06/12 04:32:57;;;;;;;3.73;3.50;;;;;;;16.78;64.22;100854.75;5056345;28;20215;-77
2023/06/12 04:35:24;;;;;;;4.40;4.10;;;;;;;16.73;64.29;100861.09;5056688;28;20202;-77
2023/06/12 04:37:52;;;;;;;3.77;3.47;;;;;;;16.74;65.17;100853.13;5056533;28;20205;-77
2023/06/12 04:40:22;;;;;;;4.63;4.33;;;;;;;16.75;64.60;100844.34;5056247;28;20232;-77
2023/06/12 04:42:48;;;;;;;4.97;4.67;;;;;;;16.83;63.38;100871.28;5056832;28;20284;-77
2023/06/12 04:45:15;;;;;;;3.97;3.73;;;;;;;16.87;63.76;100883.44;5056492;28;20699;-77
2023/06/12 04:47:41;;;;;;;5.17;4.37;;;;;;;16.93;64.61;100876.22;5056615;28;20209;-77
2023/06/12 04:50:10;;;;;;;4.53;4.13;;;;;;;16.96;64.77;100852.34;5056161;28;20243;-77
2023/06/12 04:52:36;;;;;;;5.67;5.17;;;;;;;16.99;64.70;100849.63;5054786;28;20297;-77
2023/06/12 04:55:03;;;;;;;5.40;5.00;;;;;;;17.01;63.95;100853.91;5055330;28;20205;-77
2023/06/12 04:57:31;;;;;;;5.60;5.00;;;;;;;17.12;64.13;100868.44;5055959;28;20209;-77
2023/06/12 04:59:58;;;;;;;6.23;5.67;;;;;;;17.20;65.29;100854.00;5056392;28;20643;-78
2023/06/12 05:02:24;;;;;;;6.03;5.57;;;;;;;17.29;63.92;100863.38;5056309;28;20205;-77
2023/06/12 05:04:51;;;;;;;6.20;5.60;;;;;;;17.35;64.14;100875.44;5055925;28;20320;-77
2023/06/12 05:07:18;;;;;;;6.20;5.67;;;;;;;17.43;63.70;100881.28;5055628;28;20291;-77
2023/06/12 05:12:11;;;;;;;6.83;5.37;;;;;;;17.55;63.63;100875.50;5092425;23;20228;-78
2023/06/12 05:14:40;;;;;;;6.63;6.03;;;;;;;17.63;63.52;100889.22;5074242;28;20259;-78
2023/06/12 05:17:06;;;;;;;5.73;5.40;;;;;;;17.75;63.15;100901.06;5076105;28;20259;-81
2023/06/12 05:19:33;;;;;;;6.07;5.60;;;;;;;17.86;63.33;100900.66;5077331;28;20579;-79
2023/06/12 05:21:59;;;;;;;6.17;5.70;;;;;;;17.97;62.42;100919.56;5059506;28;20722;-78
2023/06/12 05:24:26;;;;;;;6.40;5.90;;;;;;;18.06;63.14;100934.16;5057928;28;20248;-79
2023/06/12 05:26:52;;;;;;;6.43;5.83;;;;;;;18.18;63.46;100935.44;5057694;28;20518;-78
2023/06/12 05:29:18;;;;;;;7.30;6.70;;;;;;;18.27;62.57;100929.75;5057645;28;20225;-82
2023/06/12 05:31:46;;;;;;;6.53;6.07;;;;;;;18.37;62.28;100961.91;5058034;28;20287;-78
2023/06/12 05:34:12;;;;;;;7.57;6.97;;;;;;;18.44;62.64;100955.44;5057649;28;20201;-80
2023/06/12 05:36:39;;;;;;;12.87;11.70;;;;;;;18.56;66.55;100928.47;5057072;28;20209;-79
2023/06/12 05:39:06;;;;;;;6.80;6.27;;;;;;;18.65;65.95;100867.25;5057393;28;20209;-79
2023/06/12 05:41:33;;;;;;;6.40;5.90;;;;;;;18.71;63.50;100889.03;5057311;28;20225;-79
2023/06/12 05:43:59;;;;;;;7.97;6.63;;;;;;;18.76;62.17;100932.84;5056682;28;20781;-80
2023/06/12 05:46:25;;;;;;;8.00;6.77;;;;;;;18.78;61.94;100957.44;5057443;28;20201;-79
2023/06/12 05:48:55;;;;;;;10.37;7.07;;;;;;;18.80;61.84;100981.22;5056905;28;20251;-79
2023/06/12 05:51:21;;;;;;;9.03;8.10;;;;;;;18.83;62.31;100997.81;5056483;28;20221;-79
2023/06/12 05:53:47;;;;;;;8.50;7.67;;;;;;;18.83;61.44;100997.81;5058492;28;20201;-79
2023/06/12 05:56:14;;;;;;;8.30;7.43;;;;;;;18.83;61.99;101013.69;5076518;28;20270;-78
2023/06/12 05:58:42;;;;;;;7.73;7.03;;;;;;;18.85;63.42;100988.03;5076514;28;20209;-78
2023/06/12 06:01:11;;;;;;;7.47;6.77;;;;;;;18.86;64.58;100954.50;5075593;28;20228;-80
2023/06/12 06:03:42;;;;;;;7.23;6.77;;;;;;;18.89;64.93;100929.69;5093807;28;20277;-78
2023/06/12 06:06:12;;;;;;;14.43;6.97;;;;;;;18.95;65.54;100909.13;5097118;28;20207;-79
2023/06/12 06:08:38;;;;;;;7.97;7.20;;;;;;;19.04;65.31;100897.22;5096616;28;20200;-78
2023/06/12 06:11:05;;;;;;;7.90;7.20;;;;;;;19.16;64.67;100903.75;5105172;28;20299;-78
2023/06/12 06:13:32;;;;;;;7.83;7.23;;;;;;;19.29;64.63;100923.41;5108007;28;20216;-80
2023/06/12 06:15:58;;;;;;;8.30;7.60;;;;;;;19.42;64.33;100921.00;5100909;28;20204;-80
2023/06/12 06:18:24;;;;;;;8.37;7.73;;;;;;;19.54;63.27;100946.03;5096395;28;20200;-80
2023/06/12 06:20:52;;;;;;;7.97;7.37;;;;;;;19.64;64.22;100950.84;5080003;28;20251;-79
2023/06/12 06:23:20;;;;;;;8.63;7.87;;;;;;;19.73;64.36;100952.19;5056368;28;20331;-79
2023/06/12 06:25:46;;;;;;;7.97;7.27;;;;;;;19.78;64.29;100960.81;5056755;28;20206;-78
2023/06/12 06:28:12;;;;;;;8.67;7.87;;;;;;;19.84;63.70;100962.25;5055377;28;20228;-80
2023/06/12 06:30:39;;;;;;;8.90;8.20;;;;;;;19.90;64.12;100969.06;5055619;28;20248;-79
2023/06/12 06:33:06;;;;;;;9.00;8.30;;;;;;;19.96;63.61;100964.31;5056244;28;20221;-81
2023/06/12 06:35:32;;;;;;;9.00;8.20;;;;;;;19.97;62.86;100986.38;5056348;28;20201;-80
2023/06/12 06:37:58;;;;;;;14.27;8.17;;;;;;;20.02;63.41;101005.56;5056159;28;20228;-81
2023/06/12 06:40:26;;;;;;;8.77;8.07;;;;;;;20.08;63.07;101009.69;5056137;28;20232;-80
2023/06/12 06:42:53;;;;;;;7.90;7.30;;;;;;;20.11;63.39;101015.69;5056066;28;20206;-80
2023/06/12 06:45:20;;;;;;;8.73;8.13;;;;;;;20.12;63.54;101017.44;5055971;28;20225;-80
2023/06/12 06:47:46;;;;;;;9.07;8.47;;;;;;;20.17;63.96;100995.97;5056027;28;20205;-80
2023/06/12 06:50:13;;;;;;;9.20;8.30;;;;;;;20.23;63.79;100991.22;5057082;28;20335;-82
2023/06/12 06:52:39;;;;;;;8.33;7.73;;;;;;;20.27;64.42;100988.44;5056008;28;20560;-80
2023/06/12 06:55:05;;;;;;;8.57;7.90;;;;;;;20.31;64.04;100993.50;5055875;28;20815;-81
2023/06/12 06:57:36;;;;;;;9.43;8.70;;;;;;;20.36;64.58;100982.66;5055705;28;20256;-83
2023/06/12 07:00:06;;;;;;;9.20;8.53;;;;;;;20.39;64.46;100972.75;5056215;28;20209;-81
2023/06/12 07:02:32;;;;;;;9.77;8.77;;;;;;;20.46;64.60;100983.91;5056433;28;20676;-81
2023/06/12 07:04:58;;;;;;;8.40;7.90;;;;;;;20.52;65.30;100957.06;5056241;28;20291;-81
2023/06/12 07:07:25;;;;;;;8.73;8.13;;;;;;;20.58;64.31;100963.84;5055993;28;20201;-81
2023/06/12 07:09:51;;;;;;;9.30;8.60;;;;;;;20.74;69.05;100856.00;5056301;28;20646;-81
2023/06/12 07:12:18;;;;;;;11.97;10.40;;;;;;;20.81;68.86;100870.66;5056637;28;20208;-81
2023/06/12 07:14:45;;;;;;;9.23;8.53;;;;;;;20.90;65.79;100863.97;5055962;28;20619;-82
2023/06/12 07:17:12;;;;;;;8.57;7.73;;;;;;;20.96;64.88;100935.28;5055836;28;20686;-81
2023/06/12 07:19:38;;;;;;;8.10;7.50;;;;;;;21.08;64.63;100928.44;5056203;28;20205;-81
2023/06/12 07:22:05;;;;;;;8.97;8.17;;;;;;;21.15;62.68;100974.97;5060680;28;20228;-80
2023/06/12 07:24:31;;;;;;;9.17;8.17;;;;;;;21.21;64.26;100992.38;5060019;28;20251;-81
2023/06/12 07:26:57;;;;;;;8.30;7.70;;;;;;;21.30;62.18;101020.19;5058437;28;20213;-80
2023/06/12 07:29:24;;;;;;;8.77;7.93;;;;;;;21.33;61.94;101055.41;5055731;28;20201;-81
2023/06/12 07:31:51;;;;;;;7.70;7.17;;;;;;;21.39;62.73;101052.44;5056414;28;20221;-80
2023/06/12 07:34:18;;;;;;;8.37;7.67;;;;;;;21.49;61.18;101074.06;5054634;28;20556;-83
2023/06/12 07:36:47;;;;;;;9.33;8.53;;;;;;;21.56;59.74;101117.09;5053750;28;20729;-83
2023/06/12 07:39:14;;;;;;;8.97;8.20;;;;;;;21.57;61.08;101132.09;5053487;28;20221;-81
2023/06/12 07:41:42;;;;;;;8.17;7.57;;;;;;;21.62;61.25;101111.44;5053135;28;20225;-81
2023/06/12 07:44:10;;;;;;;8.63;8.03;;;;;;;21.66;60.90;101097.03;5053949;28;20287;-81
2023/06/12 07:46:37;;;;;;;8.20;7.57;;;;;;;21.67;62.49;101074.00;5054879;28;20228;-81
2023/06/12 07:49:04;;;;;;;7.70;7.20;;;;;;;21.70;60.50;101109.22;5054273;28;20209;-81
2023/06/12 07:51:31;;;;;;;8.17;7.40;;;;;;;21.79;58.66;101118.50;5055995;28;20229;-83
2023/06/12 07:53:57;;;;;;;8.40;7.70;;;;;;;21.89;58.87;101161.38;5054960;28;20206;-81
2023/06/12 07:56:24;;;;;;;7.63;7.13;;;;;;;21.99;58.56;101167.91;5054576;28;20205;-82
2023/06/12 07:58:52;;;;;;;8.10;7.60;;;;;;;22.06;60.87;101156.00;5054244;28;20240;-81
2023/06/12 08:01:22;;;;;;;7.60;7.00;;;;;;;22.13;59.86;101137.88;5054809;28;20325;-82
2023/06/12 08:03:49;;;;;;;7.67;7.20;;;;;;;22.21;59.13;101135.66;5054884;28;20279;-82
2023/06/12 08:06:16;;;;;;;7.60;7.00;;;;;;;22.27;57.01;101166.41;5054523;28;20205;-81
2023/06/12 08:08:44;;;;;;;7.70;7.13;;;;;;;22.35;56.93;101204.91;5054381;28;20212;-83
2023/06/12 08:11:11;;;;;;;7.57;6.77;;;;;;;22.40;58.67;101204.69;5054678;28;20241;-83
2023/06/12 08:13:38;;;;;;;8.43;7.07;;;;;;;22.49;57.30;101201.47;5054775;28;20259;-82
2023/06/12 08:16:05;;;;;;;6.90;6.40;;;;;;;22.56;54.28;101250.75;5054826;28;20576;-82
2023/06/12 08:18:31;;;;;;;6.87;6.33;;;;;;;22.64;57.26;101257.47;5055086;28;20221;-83
2023/06/12 08:20:58;;;;;;;6.70;6.30;;;;;;;22.71;57.41;101218.88;5065061;28;20250;-83
2023/06/12 08:23:26;;;;;;;6.70;6.17;;;;;;;22.76;52.21;101286.03;5056036;28;20255;-83
2023/06/12 08:25:53;;;;;;;6.50;5.90;;;;;;;22.85;52.56;101329.91;5054952;28;20229;-82
2023/06/12 08:28:19;;;;;;;6.23;5.57;;;;;;;22.92;51.12;101393.38;5056577;28;20296;-83
2023/06/12 08:30:46;;;;;;;6.30;5.80;;;;;;;23.00;52.10;101393.81;5055947;28;20283;-82
2023/06/12 08:33:16;;;;;;;5.73;5.33;;;;;;;23.08;50.64;101422.72;5057880;28;20214;-83
2023/06/12 08:35:46;;;;;;;6.23;5.73;;;;;;;23.15;50.11;101463.16;5058035;28;20255;-82
2023/06/12 08:38:12;;;;;;;5.57;5.13;;;;;;;23.19;48.30;101494.00;5059310;28;20206;-82
2023/06/12 08:40:40;;;;;;;5.83;5.43;;;;;;;23.23;49.10;101535.56;5055093;28;20327;-82
2023/06/12 08:43:07;;;;;;;6.37;5.77;;;;;;;23.26;48.77;101538.03;5055554;28;20300;-81
2023/06/12 08:45:42;;;;;;;6.20;5.63;;;;;;;23.26;48.73;101508.72;5054648;28;20225;-82
2023/06/12 08:48:08;;;;;;;6.17;5.77;;;;;;;23.34;50.05;101471.84;5058477;28;20677;-82
2023/06/12 08:50:35;;;;;;;6.10;5.73;;;;;;;23.41;49.38;101480.38;5065441;28;20280;-81
2023/06/12 08:53:04;;;;;;;6.90;6.37;;;;;;;23.47;49.82;101476.50;5069493;28;20203;-83
2023/06/12 08:55:39;;;;;;;6.43;5.93;;;;;;;23.50;48.91;101481.66;5078048;28;20679;-83
2023/06/12 08:58:07;;;;;;;7.10;6.50;;;;;;;23.55;48.16;101499.13;5078455;28;20200;-83
2023/06/12 09:00:34;;;;;;;6.73;6.10;;;;;;;23.58;47.90;101540.72;5078516;28;20231;-82
2023/06/12 09:03:04;;;;;;;6.67;6.03;;;;;;;23.65;47.62;101547.44;5078075;28;20793;-82
2023/06/12 09:05:33;;;;;;;6.67;6.17;;;;;;;23.69;47.79;101543.66;5078244;28;20619;-82
2023/06/12 09:08:02;;;;;;;6.10;5.50;;;;;;;23.76;46.30;101545.00;5078449;28;20214;-83
2023/06/12 09:10:31;;;;;;;10.67;4.97;;;;;;;23.79;43.87;101621.34;5078625;28;20318;-83
2023/06/12 09:12:58;;;;;;;5.97;5.47;;;;;;;23.81;44.37;101686.13;5078328;28;20208;-83
2023/06/12 09:15:26;;;;;;;5.63;4.93;;;;;;;23.84;43.54;101714.41;5078285;28;20212;-84
2023/06/12 09:18:30;;;;;;;9.13;6.10;;;;;;;23.85;45.12;101714.34;5078144;28;20204;-82
2023/06/12 09:20:57;;;;;;;5.57;5.10;;;;;;;23.87;45.63;101645.78;5068933;28;20259;-82
2023/06/12 09:23:24;;;;;;;5.30;5.00;;;;;;;23.92;44.00;101664.19;5078215;28;20201;-81
2023/06/12 09:25:55;;;;;;;5.07;4.70;;;;;;;23.90;43.42;101693.59;5078053;28;20228;-83
2023/06/12 09:28:25;;;;;;;5.03;4.73;;;;;;;23.91;44.01;101721.16;5077652;28;20262;-83
2023/06/12 09:30:54;;;;;;;5.67;5.27;;;;;;;23.96;43.64;101716.41;5077824;28;20254;-83
2023/06/12 09:33:27;;;;;;;5.77;5.07;;;;;;;23.99;44.46;101705.59;5077923;28;20747;-81
2023/06/12 09:35:54;;;;;;;5.43;5.07;;;;;;;24.02;46.08;101693.88;5078006;28;20207;-83
2023/06/12 09:38:29;;;;;;;5.23;4.60;;;;;;;24.06;41.78;101685.59;5077637;28;20212;-82
2023/06/12 09:40:57;;;;;;;5.03;4.63;;;;;;;24.07;42.94;101739.84;5077762;28;20252;-81
2023/06/12 09:43:24;;;;;;;4.60;4.30;;;;;;;24.10;42.24;101748.53;5075940;28;20667;-80
2023/06/12 09:45:52;;;;;;;4.83;4.53;;;;;;;24.13;40.95;101785.72;5077565;28;20224;-79
2023/06/12 09:48:18;;;;;;;5.10;4.60;;;;;;;24.17;42.75;101792.59;5079430;28;20208;-80
2023/06/12 09:50:46;;;;;;;5.17;4.47;;;;;;;24.24;41.85;101778.91;5075581;28;20266;-79
2023/06/12 09:53:16;;;;;;;4.40;4.00;;;;;;;24.27;43.06;101802.78;5057720;28;20251;-79
2023/06/12 09:55:45;;;;;;;6.53;5.07;;;;;;;24.34;40.76;101782.78;5055542;28;20292;-81
2023/06/12 09:58:13;;;;;;;4.50;4.10;;;;;;;24.38;42.17;101805.72;5057180;28;20204;-82
2023/06/12 10:00:40;;;;;;;4.13;3.57;;;;;;;24.44;39.59;101804.50;5059799;28;20283;-80
2023/06/12 10:03:13;;;;;;;10.07;4.13;;;;;;;24.49;38.98;101854.03;5056564;28;20258;-81
2023/06/12 10:05:43;;;;;;;4.97;3.73;;;;;;;24.52;36.69;101931.31;5056792;28;20813;-79
2023/06/12 10:08:10;;;;;;;4.10;3.73;;;;;;;24.58;35.90;102004.91;5057232;28;20209;-81
2023/06/12 10:10:37;;;;;;;4.03;3.63;;;;;;;24.62;36.99;102042.97;5056237;28;20287;-79
2023/06/12 10:13:04;;;;;;;4.13;3.77;;;;;;;24.67;36.69;102035.56;5056056;28;20274;-80
2023/06/12 10:15:32;;;;;;;3.73;3.43;;;;;;;24.73;37.07;101997.84;5056168;28;20220;-80
2023/06/12 10:17:59;;;;;;;4.73;3.57;;;;;;;24.75;35.38;102012.84;5055534;28;20205;-79
2023/06/12 10:20:27;;;;;;;4.30;3.90;;;;;;;24.80;35.45;102051.81;5058018;28;20304;-80
2023/06/12 10:22:55;;;;;;;4.50;3.47;;;;;;;24.84;36.06;102053.41;5061640;28;20201;-81
2023/06/12 10:25:28;;;;;;;3.67;3.30;;;;;;;24.86;36.41;102046.16;5057805;28;20248;-81
2023/06/12 10:28:05;;;;;;;4.10;3.70;;;;;;;24.91;37.16;101993.31;5057500;28;20259;-81
2023/06/12 10:30:36;;;;;;;4.03;3.63;;;;;;;24.94;38.76;101969.13;5058899;28;20229;-82
2023/06/12 10:33:13;;;;;;;4.13;3.70;;;;;;;25.01;38.93;101950.94;5059960;28;20757;-80
2023/06/12 10:35:41;;;;;;;4.07;3.70;;;;;;;25.06;35.64;101920.34;5059921;28;20229;-80
2023/06/12 10:38:11;;;;;;;5.90;3.57;;;;;;;25.09;33.53;102012.81;5066334;28;20205;-81
2023/06/12 10:40:39;;;;;;;5.87;3.40;;;;;;;25.10;33.32;102094.75;5066042;28;20282;-81
2023/06/12 10:43:06;;;;;;;3.47;3.20;;;;;;;25.12;33.52;102115.06;5057202;28;20213;-80
2023/06/12 10:45:33;;;;;;;7.60;3.30;;;;;;;25.14;32.91;102144.41;5062234;28;20620;-80
2023/06/12 10:48:13;;;;;;;4.10;3.60;;;;;;;25.15;33.76;102130.97;5056476;28;20883;-79
2023/06/12 10:50:43;;;;;;;3.57;3.27;;;;;;;25.20;34.15;102079.06;5057692;28;20224;-78
2023/06/12 10:53:12;;;;;;;3.73;3.20;;;;;;;25.23;33.22;102095.81;5074798;28;20266;-79
2023/06/12 10:55:39;;;;;;;4.37;3.50;;;;;;;25.29;32.93;102124.91;5074896;28;20228;-80
2023/06/12 10:58:07;;;;;;;4.87;3.20;;;;;;;25.31;32.85;102128.38;5076245;28;20208;-80
2023/06/12 11:00:35;;;;;;;3.50;3.20;;;;;;;25.31;33.25;102123.03;5076164;28;20225;-79
2023/06/12 11:03:04;;;;;;;3.80;3.30;;;;;;;25.34;32.97;102117.47;5077326;28;20232;-80
2023/06/12 11:05:32;;;;;;;4.50;3.33;;;;;;;25.42;34.10;102114.41;5074978;28;20450;-80
2023/06/12 11:08:01;;;;;;;3.23;2.73;;;;;;;25.50;34.07;102060.50;5075966;28;20201;-79
2023/06/12 11:12:55;;;;;;;3.07;2.83;;;;;;;25.65;35.56;102094.41;5030195;28;20229;-79
2023/06/12 11:15:23;;;;;;;5.10;3.33;;;;;;;25.73;33.27;102065.41;5036289;28;20276;-79
2023/06/12 11:17:49;;;;;;;4.77;3.13;;;;;;;25.80;31.99;102073.94;5034914;28;20201;-79
2023/06/12 11:20:18;;;;;;;4.20;3.47;;;;;;;25.87;32.42;102111.91;5034496;28;20280;-79
2023/06/12 11:22:48;;;;;;;5.83;3.30;;;;;;;26.00;32.80;102125.47;5047996;28;20228;-79
2023/06/12 11:25:16;;;;;;;3.50;3.20;;;;;;;26.10;32.33;102110.63;5034862;28;20221;-79
2023/06/12 11:27:43;;;;;;;3.80;3.60;;;;;;;26.22;31.60;102119.75;5037361;28;20293;-78
2023/06/12 11:30:11;;;;;;;4.13;3.77;;;;;;;26.35;30.50;102142.19;5034753;28;20233;-79
2023/06/12 11:32:38;;;;;;;3.83;3.53;;;;;;;26.70;30.24;102166.03;5033347;28;20222;-79